Time;durP1;ratioP1;P1;durP2;ratioP2;P2;SDS_P1;SDS_P2;PMS_P1;PMS_P2;Temp;Humidity;BMP_temperature;BMP_pressure;BME280_temperature;BME280_humidity;BME280_pressure;Samples;Min_cycle;Max_cycle;Signal;HPM_P1;HPM_P2
2022/09/30 00:00:38;;;;;;;;;;;;;;;;;;5135445;27;1914;-39
2022/09/30 00:03:06;;;;;;;;;;;;;;;;;;5135339;27;2058;-43
2022/09/30 00:05:33;;;;;;;;;;;;;;;;;;5133862;27;1685;-41
2022/09/30 00:08:00;;;;;;;;;;;;;;;;;;5134629;27;1957;-42
2022/09/30 00:10:28;;;;;;;;;;;;;;;;;;5135321;27;1702;-42
2022/09/30 00:12:57;;;;;;;;;;;;;;;;;;5135097;27;1792;-44
2022/09/30 00:15:24;;;;;;;;;;;;;;;;;;5135234;27;1986;-42
2022/09/30 00:17:51;;;;;;;;;;;;;;;;;;5134531;27;1439;-41
2022/09/30 00:20:18;;;;;;;;;;;;;;;;;;5134839;27;1972;-42
2022/09/30 00:22:45;;;;;;;;;;;;;;;;;;5134871;27;2062;-43
2022/09/30 00:25:13;;;;;;;;;;;;;;;;;;5134660;27;1935;-43
2022/09/30 00:27:40;;;;;;;;;;;;;;;;;;5135220;27;2221;-44
2022/09/30 00:30:07;;;;;;;;;;;;;;;;;;5134546;27;1691;-41
2022/09/30 00:32:34;;;;;;;;;;;;;;;;;;5114223;28;2109;-43
2022/09/30 00:35:02;;;;;;;;;;;;;;;;;;5113956;28;1743;-42
2022/09/30 00:37:29;;;;;;;;;;;;;;;;;;5114070;28;2073;-42
2022/09/30 00:39:56;;;;;;;;;;;;;;;;;;5113989;28;1759;-41
2022/09/30 00:42:25;;;;;;;;;;;;;;;;;;5114010;28;2063;-43
2022/09/30 00:44:54;;;;;;;;;;;;;;;;;;5114039;28;1910;-42
2022/09/30 00:47:21;;;;;;;;;;;;;;;;;;5113406;28;1633;-43
2022/09/30 00:49:48;;;;;;;;;;;;;;;;;;5113680;28;1956;-42
2022/09/30 00:52:16;;;;;;;;;;;;;;;;;;5113709;28;1760;-42
2022/09/30 00:54:43;;;;;;;;;;;;;;;;;;5113869;28;1638;-41
2022/09/30 00:57:10;;;;;;;;;;;;;;;;;;5114022;28;1738;-41
2022/09/30 00:59:40;;;;;;;;;;;;;;;;;;5113501;28;1429;-42
2022/09/30 01:02:09;;;;;;;;;;;;;;;;;;5113383;28;1972;-44
2022/09/30 01:04:36;;;;;;;;;;;;;;;;;;5113588;28;2083;-43
2022/09/30 01:07:05;;;;;;;;;;;;;;;;;;5113595;28;1766;-42
2022/09/30 01:09:33;;;;;;;;;;;;;;;;;;5113536;28;1792;-42
2022/09/30 01:12:09;;;;;;;;;;;;;;;;;;5113616;28;1807;-43
2022/09/30 01:14:37;;;;;;;;;;;;;;;;;;5113120;28;1903;-43
2022/09/30 01:17:07;;;;;;;;;;;;;;;;;;5112042;28;1827;-43
2022/09/30 01:19:43;;;;;;;;;;;;;;;;;;5112712;28;1988;-41
2022/09/30 01:22:29;;;;;;;;;;;;;;;;;;5113226;28;1986;-42
2022/09/30 01:24:56;;;;;;;;;;;;;;;;;;5112913;27;1275;-41
2022/09/30 01:27:35;;;;;;;;;;;;;;;;;;5113222;28;2190;-42
2022/09/30 01:30:08;;;;;;;;;;;;;;;;;;5113138;28;2216;-42
2022/09/30 01:32:38;;;;;;;;;;;;;;;;;;5133641;27;1614;-42
2022/09/30 01:35:23;;;;;;;;;;;;;;;;;;5133877;27;1748;-42
2022/09/30 01:37:57;;;;;;;;;;;;;;;;;;5133370;27;1843;-44
2022/09/30 01:40:33;;;;;;;;;;;;;;;;;;5133697;27;1815;-42
2022/09/30 01:43:00;;;;;;;;;;;;;;;;;;5133011;27;1901;-40
2022/09/30 01:45:41;;;;;;;;;;;;;;;;;;5133544;27;1694;-41
2022/09/30 01:48:17;;;;;;;;;;;;;;;;;;5133534;27;1806;-44
2022/09/30 01:50:47;;;;;;;;;;;;;;;;;;5133216;27;1906;-41
2022/09/30 01:53:14;;;;;;;;;;;;;;;;;;5133428;27;1664;-41
2022/09/30 01:56:01;;;;;;;;;;;;;;;;;;5133532;27;1753;-42
2022/09/30 01:58:31;;;;;;;;;;;;;;;;;;5133348;27;1881;-42
2022/09/30 02:01:00;;;;;;;;;;;;;;;;;;5133239;27;1990;-41
2022/09/30 02:03:38;;;;;;;;;;;;;;;;;;5133194;27;1967;-41
2022/09/30 02:06:16;;;;;;;;;;;;;;;;;;5133421;27;1938;-42
2022/09/30 02:08:45;;;;;;;;;;;;;;;;;;5133416;28;1728;-42
2022/09/30 02:11:24;;;;;;;;;;;;;;;;;;5129280;27;1667;-42
2022/09/30 02:14:03;;;;;;;;;;;;;;;;;;5111764;28;1317;-44
2022/09/30 02:16:37;;;;;;;;;;;;;;;;;;5112622;28;1843;-43
2022/09/30 02:19:04;;;;;;;;;;;;;;;;;;5112001;28;2050;-42
2022/09/30 02:21:34;;;;;;;;;;;;;;;;;;5112534;28;2253;-43
2022/09/30 02:24:04;;;;;;;;;;;;;;;;;;5112497;28;1910;-42
2022/09/30 02:26:35;;;;;;;;;;;;;;;;;;5112645;28;1852;-42
2022/09/30 02:29:14;;;;;;;;;;;;;;;;;;5112635;28;1807;-42
2022/09/30 02:31:43;;;;;;;;;;;;;;;;;;5128302;27;1539;-42
2022/09/30 02:34:44;;;;;;;;;;;;;;;;;;5137211;27;1655;-42
2022/09/30 02:37:14;;;;;;;;;;;;;;;;;;5114237;27;1559;-43
2022/09/30 02:39:41;;;;;;;;;;;;;;;;;;5136890;27;1942;-42
2022/09/30 02:42:11;;;;;;;;;;;;;;;;;;5136465;27;2101;-42
2022/09/30 02:44:39;;;;;;;;;;;;;;;;;;5126890;27;1953;-40
2022/09/30 02:47:11;;;;;;;;;;;;;;;;;;5116145;27;1909;-40
2022/09/30 02:49:45;;;;;;;;;;;;;;;;;;5116164;28;1843;-41
2022/09/30 02:52:19;;;;;;;;;;;;;;;;;;5115107;28;2169;-42
2022/09/30 02:54:55;;;;;;;;;;;;;;;;;;5116412;28;1934;-41
2022/09/30 02:57:49;;;;;;;;;;;;;;;;;;5115983;27;2099;-41
2022/09/30 03:00:17;;;;;;;;;;;;;;;;;;5113612;28;1715;-41
2022/09/30 03:02:44;;;;;;;;;;;;;;;;;;5116098;28;1938;-41
2022/09/30 03:05:12;;;;;;;;;;;;;;;;;;5115890;28;1611;-41
2022/09/30 03:07:39;;;;;;;;;;;;;;;;;;5115905;28;1982;-41
2022/09/30 03:10:14;;;;;;;;;;;;;;;;;;5115787;28;1606;-41
2022/09/30 03:12:59;;;;;;;;;;;;;;;;;;5115523;28;1661;-40
2022/09/30 03:15:38;;;;;;;;;;;;;;;;;;5115656;28;1785;-41
2022/09/30 03:18:08;;;;;;;;;;;;;;;;;;5115528;28;1957;-41
2022/09/30 03:20:53;;;;;;;;;;;;;;;;;;5115689;28;1416;-40
2022/09/30 03:23:26;;;;;;;;;;;;;;;;;;5115297;28;1882;-40
2022/09/30 03:26:02;;;;;;;;;;;;;;;;;;5114854;27;1983;-42
2022/09/30 03:28:33;;;;;;;;;;;;;;;;;;5115528;28;1959;-40
2022/09/30 03:31:19;;;;;;;;;;;;;;;;;;5123083;27;1781;-40
2022/09/30 03:33:46;;;;;;;;;;;;;;;;;;5136457;27;1851;-39
2022/09/30 03:36:18;;;;;;;;;;;;;;;;;;5135938;27;1600;-41
2022/09/30 03:38:57;;;;;;;;;;;;;;;;;;5135738;27;1675;-40
2022/09/30 03:41:32;;;;;;;;;;;;;;;;;;5135162;27;1321;-41
2022/09/30 03:44:03;;;;;;;;;;;;;;;;;;5134266;27;2152;-40
2022/09/30 03:46:40;;;;;;;;;;;;;;;;;;5135624;27;1843;-40
2022/09/30 03:49:12;;;;;;;;;;;;;;;;;;5135658;27;2081;-40
2022/09/30 03:51:40;;;;;;;;;;;;;;;;;;5135713;27;1776;-40
2022/09/30 03:54:11;;;;;;;;;;;;;;;;;;5135342;27;1544;-40
2022/09/30 03:56:42;;;;;;;;;;;;;;;;;;5135541;27;1417;-41
2022/09/30 03:59:18;;;;;;;;;;;;;;;;;;5135290;27;1972;-40
2022/09/30 04:01:45;;;;;;;;;;;;;;;;;;5135653;27;1703;-40
2022/09/30 04:04:13;;;;;;;;;;;;;;;;;;5135334;27;1897;-42
2022/09/30 04:06:40;;;;;;;;;;;;;;;;;;5135490;27;1967;-40
2022/09/30 04:09:08;;;;;;;;;;;;;;;;;;5129298;27;2376;-42
2022/09/30 04:11:36;;;;;;;;;;;;;;;;;;5114258;28;1891;-42
2022/09/30 04:14:04;;;;;;;;;;;;;;;;;;5128290;27;2042;-40
2022/09/30 04:16:31;;;;;;;;;;;;;;;;;;5135272;27;2131;-41
2022/09/30 04:18:58;;;;;;;;;;;;;;;;;;5135147;27;2104;-41
2022/09/30 04:21:29;;;;;;;;;;;;;;;;;;5135015;27;1912;-40
2022/09/30 04:23:57;;;;;;;;;;;;;;;;;;5134968;27;1968;-40
2022/09/30 04:26:24;;;;;;;;;;;;;;;;;;5134561;27;1971;-40
2022/09/30 04:28:51;;;;;;;;;;;;;;;;;;5134758;27;2167;-40
2022/09/30 04:31:20;;;;;;;;;;;;;;;;;;5124326;27;2152;-41
2022/09/30 04:33:47;;;;;;;;;;;;;;;;;;5114472;28;1425;-39
2022/09/30 04:36:14;;;;;;;;;;;;;;;;;;5114292;28;2014;-40
2022/09/30 04:38:41;;;;;;;;;;;;;;;;;;5113989;28;1815;-42
2022/09/30 04:41:15;;;;;;;;;;;;;;;;;;5113845;28;2154;-42
2022/09/30 04:43:46;;;;;;;;;;;;;;;;;;5113859;28;1906;-40
2022/09/30 04:46:14;;;;;;;;;;;;;;;;;;5114019;28;1872;-42
2022/09/30 04:48:44;;;;;;;;;;;;;;;;;;5114192;28;1747;-41
2022/09/30 04:51:13;;;;;;;;;;;;;;;;;;5113543;28;1766;-41
2022/09/30 04:53:41;;;;;;;;;;;;;;;;;;5112809;28;2158;-40
2022/09/30 04:56:09;;;;;;;;;;;;;;;;;;5113461;28;1625;-41
2022/09/30 04:58:36;;;;;;;;;;;;;;;;;;5112202;28;1962;-41
2022/09/30 05:01:05;;;;;;;;;;;;;;;;;;5113822;28;1907;-41
2022/09/30 05:03:33;;;;;;;;;;;;;;;;;;5113365;28;2198;-39
2022/09/30 05:06:01;;;;;;;;;;;;;;;;;;5113784;28;1909;-40
2022/09/30 05:08:28;;;;;;;;;;;;;;;;;;5113300;28;1605;-39
2022/09/30 05:10:56;;;;;;;;;;;;;;;;;;5113443;28;1911;-39
2022/09/30 05:13:24;;;;;;;;;;;;;;;;;;5113286;28;1814;-40
2022/09/30 05:15:52;;;;;;;;;;;;;;;;;;5113470;28;1988;-40
2022/09/30 05:18:19;;;;;;;;;;;;;;;;;;5113571;28;1893;-41
2022/09/30 05:20:50;;;;;;;;;;;;;;;;;;5113535;28;1824;-39
2022/09/30 05:23:17;;;;;;;;;;;;;;;;;;5113359;28;1969;-41
2022/09/30 05:25:45;;;;;;;;;;;;;;;;;;5113185;28;1622;-39
2022/09/30 05:28:12;;;;;;;;;;;;;;;;;;5113285;28;1489;-41
2022/09/30 05:30:40;;;;;;;;;;;;;;;;;;5117769;27;1914;-40
2022/09/30 05:33:08;;;;;;;;;;;;;;;;;;5131815;27;1739;-41
2022/09/30 05:35:36;;;;;;;;;;;;;;;;;;5133625;27;2228;-40
2022/09/30 05:38:03;;;;;;;;;;;;;;;;;;5133663;27;1977;-40
2022/09/30 05:40:31;;;;;;;;;;;;;;;;;;5133401;27;1701;-40
2022/09/30 05:42:58;;;;;;;;;;;;;;;;;;5133720;27;2036;-40
2022/09/30 05:45:25;;;;;;;;;;;;;;;;;;5133323;27;1635;-41
2022/09/30 05:47:53;;;;;;;;;;;;;;;;;;5133411;27;1975;-40
2022/09/30 05:50:21;;;;;;;;;;;;;;;;;;5133373;27;1862;-41
2022/09/30 05:52:48;;;;;;;;;;;;;;;;;;5133508;27;1476;-40
2022/09/30 05:55:16;;;;;;;;;;;;;;;;;;5133738;27;2073;-40
2022/09/30 05:57:47;;;;;;;;;;;;;;;;;;5133061;28;1677;-39
2022/09/30 06:00:14;;;;;;;;;;;;;;;;;;5133514;27;2007;-41
2022/09/30 06:02:42;;;;;;;;;;;;;;;;;;5133562;27;1903;-40
2022/09/30 06:05:10;;;;;;;;;;;;;;;;;;5134713;27;1906;-40
2022/09/30 06:07:38;;;;;;;;;;;;;;;;;;5137503;27;1913;-41
2022/09/30 06:10:06;;;;;;;;;;;;;;;;;;5137845;27;2071;-42
2022/09/30 06:12:35;;;;;;;;;;;;;;;;;;5137483;27;2089;-40
2022/09/30 06:15:03;;;;;;;;;;;;;;;;;;5136505;27;2011;-40
2022/09/30 06:17:30;;;;;;;;;;;;;;;;;;5137314;27;1381;-41
2022/09/30 06:19:59;;;;;;;;;;;;;;;;;;5137220;27;1957;-40
2022/09/30 06:22:27;;;;;;;;;;;;;;;;;;5137566;27;1838;-41
2022/09/30 06:24:55;;;;;;;;;;;;;;;;;;5136752;27;2574;-41
2022/09/30 06:27:22;;;;;;;;;;;;;;;;;;5137314;27;2067;-42
2022/09/30 06:29:50;;;;;;;;;;;;;;;;;;5137420;27;1640;-40
2022/09/30 06:32:18;;;;;;;;;;;;;;;;;;5118509;27;1891;-41
2022/09/30 06:34:45;;;;;;;;;;;;;;;;;;5116931;28;1764;-40
2022/09/30 06:37:14;;;;;;;;;;;;;;;;;;5116506;28;1703;-40
2022/09/30 06:39:41;;;;;;;;;;;;;;;;;;5116212;28;2049;-41
2022/09/30 06:42:10;;;;;;;;;;;;;;;;;;5116151;28;1775;-42
2022/09/30 06:44:38;;;;;;;;;;;;;;;;;;5116254;28;1910;-42
2022/09/30 06:47:17;;;;;;;;;;;;;;;;;;5116374;28;1492;-41
2022/09/30 06:49:57;;;;;;;;;;;;;;;;;;5116056;28;1897;-41
2022/09/30 06:52:25;;;;;;;;;;;;;;;;;;5116458;28;1761;-41
2022/09/30 06:54:55;;;;;;;;;;;;;;;;;;5116349;28;1879;-41
2022/09/30 06:57:25;;;;;;;;;;;;;;;;;;5114669;28;1408;-41
2022/09/30 06:59:53;;;;;;;;;;;;;;;;;;5116251;28;1823;-43
2022/09/30 07:02:20;;;;;;;;;;;;;;;;;;5116175;28;1831;-40
2022/09/30 07:04:48;;;;;;;;;;;;;;;;;;5116026;28;2072;-41
2022/09/30 07:07:15;;;;;;;;;;;;;;;;;;5116214;28;2235;-41
2022/09/30 07:09:42;;;;;;;;;;;;;;;;;;5115708;28;1478;-41
2022/09/30 07:12:09;;;;;;;;;;;;;;;;;;5115754;28;1739;-42
2022/09/30 07:14:36;;;;;;;;;;;;;;;;;;5115929;28;1741;-41
2022/09/30 07:17:07;;;;;;;;;;;;;;;;;;5114673;28;2098;-42
2022/09/30 07:19:34;;;;;;;;;;;;;;;;;;5115478;27;2105;-41
2022/09/30 07:24:49;;;;;;;;;;;;;;;;;;5115646;28;2074;-41
2022/09/30 07:27:16;;;;;;;;;;;;;;;;;;5115899;28;1968;-42
2022/09/30 07:29:43;;;;;;;;;;;;;;;;;;5115279;27;1765;-41
2022/09/30 07:32:31;;;;;;;;;;;;;;;;;;5136051;27;1900;-41
2022/09/30 07:34:58;;;;;;;;;;;;;;;;;;5136139;27;2093;-40
2022/09/30 07:37:25;;;;;;;;;;;;;;;;;;5135877;27;1722;-43
2022/09/30 07:39:53;;;;;;;;;;;;;;;;;;5136068;27;1511;-41
2022/09/30 07:42:21;;;;;;;;;;;;;;;;;;5135483;27;1844;-42
2022/09/30 07:44:50;;;;;;;;;;;;;;;;;;5135809;27;2108;-42
2022/09/30 07:47:19;;;;;;;;;;;;;;;;;;5136092;27;1575;-42
2022/09/30 07:49:46;;;;;;;;;;;;;;;;;;5135611;27;1928;-42
2022/09/30 07:52:13;;;;;;;;;;;;;;;;;;5135647;27;2086;-41
2022/09/30 07:54:41;;;;;;;;;;;;;;;;;;5135491;27;1855;-42
2022/09/30 07:57:13;;;;;;;;;;;;;;;;;;5135304;27;1510;-43
2022/09/30 07:59:41;;;;;;;;;;;;;;;;;;5135432;27;1981;-42
2022/09/30 08:02:12;;;;;;;;;;;;;;;;;;5134339;27;1831;-42
2022/09/30 08:04:39;;;;;;;;;;;;;;;;;;5135451;27;1906;-42
2022/09/30 08:07:12;;;;;;;;;;;;;;;;;;5135160;27;2070;-42
2022/09/30 08:09:39;;;;;;;;;;;;;;;;;;5135337;27;1964;-41
2022/09/30 08:12:06;;;;;;;;;;;;;;;;;;5135286;27;1631;-43
2022/09/30 08:14:33;;;;;;;;;;;;;;;;;;5135070;27;2109;-42
2022/09/30 08:17:01;;;;;;;;;;;;;;;;;;5135236;27;1923;-43
2022/09/30 08:19:29;;;;;;;;;;;;;;;;;;5135036;27;1863;-42
2022/09/30 08:21:56;;;;;;;;;;;;;;;;;;5134914;27;1928;-46
2022/09/30 08:24:24;;;;;;;;;;;;;;;;;;5135008;27;1910;-43
2022/09/30 08:26:52;;;;;;;;;;;;;;;;;;5133724;27;1879;-42
2022/09/30 08:29:19;;;;;;;;;;;;;;;;;;5134792;27;1667;-42
2022/09/30 08:32:07;;;;;;;;;;;;;;;;;;5117424;27;1586;-44
2022/09/30 08:34:34;;;;;;;;;;;;;;;;;;5114378;28;1644;-41
2022/09/30 08:37:02;;;;;;;;;;;;;;;;;;5114139;28;1448;-42
2022/09/30 08:39:34;;;;;;;;;;;;;;;;;;5114222;28;1843;-42
2022/09/30 08:42:04;;;;;;;;;;;;;;;;;;5113964;28;2269;-43
2022/09/30 08:44:46;;;;;;;;;;;;;;;;;;5113900;28;2003;-42
2022/09/30 08:47:32;;;;;;;;;;;;;;;;;;5112278;28;1906;-43
2022/09/30 08:50:02;;;;;;;;;;;;;;;;;;5112296;28;1634;-42
2022/09/30 08:52:35;;;;;;;;;;;;;;;;;;5112281;28;1873;-39
2022/09/30 08:55:20;;;;;;;;;;;;;;;;;;5111892;28;2047;-42
2022/09/30 08:57:48;;;;;;;;;;;;;;;;;;5112618;28;1907;-41
2022/09/30 09:00:16;;;;;;;;;;;;;;;;;;5112353;28;2115;-43
2022/09/30 09:02:53;;;;;;;;;;;;;;;;;;5112297;28;1748;-42
2022/09/30 09:05:38;;;;;;;;;;;;;;;;;;5112086;28;1922;-40
2022/09/30 09:08:12;;;;;;;;;;;;;;;;;;5112160;28;1648;-41
2022/09/30 09:10:44;;;;;;;;;;;;;;;;;;5112132;28;1496;-41
2022/09/30 09:13:17;;;;;;;;;;;;;;;;;;5111931;28;1559;-43
2022/09/30 09:15:44;;;;;;;;;;;;;;;;;;5112053;28;1871;-41
2022/09/30 09:18:26;;;;;;;;;;;;;;;;;;5111885;28;2067;-43
2022/09/30 09:21:23;;;;;;;;;;;;;;;;;;5111888;28;1842;-43
2022/09/30 09:23:53;;;;;;;;;;;;;;;;;;5099249;28;2094;-41
2022/09/30 09:26:21;;;;;;;;;;;;;;;;;;5111590;28;1998;-42
2022/09/30 09:29:07;;;;;;;;;;;;;;;;;;5112073;28;1796;-42
2022/09/30 09:31:34;;;;;;;;;;;;;;;;;;5111537;28;1955;-43
2022/09/30 09:34:09;;;;;;;;;;;;;;;;;;5111745;28;1782;-46
2022/09/30 09:36:45;;;;;;;;;;;;;;;;;;5110236;28;1829;-42
2022/09/30 09:39:12;;;;;;;;;;;;;;;;;;5111205;28;1742;-42
2022/09/30 09:41:39;;;;;;;;;;;;;;;;;;5111361;28;2063;-44
2022/09/30 09:44:18;;;;;;;;;;;;;;;;;;5111735;28;1910;-40
2022/09/30 09:46:46;;;;;;;;;;;;;;;;;;5111521;28;1980;-42
2022/09/30 09:49:19;;;;;;;;;;;;;;;;;;5111427;28;2102;-41
2022/09/30 09:51:46;;;;;;;;;;;;;;;;;;5111572;28;1553;-43
2022/09/30 09:54:16;;;;;;;;;;;;;;;;;;5111433;28;1706;-41
2022/09/30 09:56:43;;;;;;;;;;;;;;;;;;5111293;28;1593;-42
2022/09/30 09:59:15;;;;;;;;;;;;;;;;;;5110064;28;1833;-43
2022/09/30 10:01:46;;;;;;;;;;;;;;;;;;5111016;28;1842;-42
2022/09/30 10:04:15;;;;;;;;;;;;;;;;;;5114271;28;1902;-42
2022/09/30 10:06:50;;;;;;;;;;;;;;;;;;5133350;27;1753;-43
2022/09/30 10:09:21;;;;;;;;;;;;;;;;;;5133487;28;2259;-43
2022/09/30 10:11:48;;;;;;;;;;;;;;;;;;5133568;27;1474;-42
2022/09/30 10:14:20;;;;;;;;;;;;;;;;;;5133109;27;1757;-43
2022/09/30 10:16:48;;;;;;;;;;;;;;;;;;5133492;27;1907;-43
2022/09/30 10:19:26;;;;;;;;;;;;;;;;;;5133404;27;2031;-42
2022/09/30 10:22:08;;;;;;;;;;;;;;;;;;5133346;27;2035;-42
2022/09/30 10:24:37;;;;;;;;;;;;;;;;;;5133022;28;2093;-42
2022/09/30 10:27:24;;;;;;;;;;;;;;;;;;5132888;27;1993;-42
2022/09/30 10:29:51;;;;;;;;;;;;;;;;;;5133468;27;1900;-42
2022/09/30 10:32:18;;;;;;;;;;;;;;;;;;5114487;27;1632;-42
2022/09/30 10:34:53;;;;;;;;;;;;;;;;;;5112519;28;2138;-42
2022/09/30 10:37:22;;;;;;;;;;;;;;;;;;5112664;28;1886;-45
2022/09/30 10:39:53;;;;;;;;;;;;;;;;;;5112510;28;1897;-42
2022/09/30 10:42:25;;;;;;;;;;;;;;;;;;5112616;28;1769;-41
2022/09/30 10:45:02;;;;;;;;;;;;;;;;;;5112175;28;1901;-42
2022/09/30 10:47:30;;;;;;;;;;;;;;;;;;5112057;28;1656;-42
2022/09/30 10:50:07;;;;;;;;;;;;;;;;;;5112382;28;1983;-41
2022/09/30 10:52:36;;;;;;;;;;;;;;;;;;5114691;28;1911;-42
2022/09/30 10:55:20;;;;;;;;;;;;;;;;;;5116243;28;1939;-43
2022/09/30 10:57:49;;;;;;;;;;;;;;;;;;5116408;28;1741;-42
2022/09/30 11:00:18;;;;;;;;;;;;;;;;;;5115957;27;1782;-43
2022/09/30 11:02:55;;;;;;;;;;;;;;;;;;5115855;28;1492;-41
2022/09/30 11:05:27;;;;;;;;;;;;;;;;;;5115953;28;2048;-42
2022/09/30 11:08:01;;;;;;;;;;;;;;;;;;5115982;28;2025;-42
2022/09/30 11:10:40;;;;;;;;;;;;;;;;;;5115890;28;2257;-42
2022/09/30 11:13:12;;;;;;;;;;;;;;;;;;5115718;28;1553;-41
2022/09/30 11:15:43;;;;;;;;;;;;;;;;;;5115869;28;1621;-42
2022/09/30 11:18:15;;;;;;;;;;;;;;;;;;5115832;28;2216;-42
2022/09/30 11:20:48;;;;;;;;;;;;;;;;;;5115795;28;1622;-45
2022/09/30 11:23:22;;;;;;;;;;;;;;;;;;5115542;28;1780;-42
2022/09/30 11:25:53;;;;;;;;;;;;;;;;;;5115804;28;1977;-41
2022/09/30 11:28:26;;;;;;;;;;;;;;;;;;5115877;28;1842;-42
2022/09/30 11:30:59;;;;;;;;;;;;;;;;;;5115595;28;1973;-42
2022/09/30 11:33:30;;;;;;;;;;;;;;;;;;5115424;28;1738;-42
2022/09/30 11:35:57;;;;;;;;;;;;;;;;;;5115464;28;1907;-42
2022/09/30 11:38:40;;;;;;;;;;;;;;;;;;5115606;28;2005;-42
2022/09/30 11:41:22;;;;;;;;;;;;;;;;;;5114657;28;1880;-42
2022/09/30 11:44:10;;;;;;;;;;;;;;;;;;5115420;28;1596;-41
2022/09/30 11:46:37;;;;;;;;;;;;;;;;;;5104816;28;1902;-42
2022/09/30 11:49:25;;;;;;;;;;;;;;;;;;5115118;28;2015;-43
2022/09/30 11:51:58;;;;;;;;;;;;;;;;;;5115235;28;1928;-41
2022/09/30 11:54:28;;;;;;;;;;;;;;;;;;5114954;28;1751;-41
2022/09/30 11:57:14;;;;;;;;;;;;;;;;;;5115281;27;1955;-42
2022/09/30 11:59:41;;;;;;;;;;;;;;;;;;5114902;28;1609;-43
2022/09/30 12:02:30;;;;;;;;;;;;;;;;;;5114311;28;1639;-40
2022/09/30 12:05:01;;;;;;;;;;;;;;;;;;5114787;28;1906;-41
2022/09/30 12:07:35;;;;;;;;;;;;;;;;;;5114962;28;1559;-42
2022/09/30 12:10:24;;;;;;;;;;;;;;;;;;5115121;28;1574;-45
2022/09/30 12:13:03;;;;;;;;;;;;;;;;;;5113396;28;1747;-43
2022/09/30 12:15:31;;;;;;;;;;;;;;;;;;5114773;28;1929;-41
2022/09/30 12:18:04;;;;;;;;;;;;;;;;;;5114548;28;1927;-42
2022/09/30 12:20:37;;;;;;;;;;;;;;;;;;5114637;27;1764;-41
2022/09/30 12:23:12;;;;;;;;;;;;;;;;;;5114415;28;2067;-40
2022/09/30 12:25:42;;;;;;;;;;;;;;;;;;5113960;28;1905;-41
2022/09/30 12:31:09;;;;;;;;;;;;;;;;;;5122739;27;1860;-41
2022/09/30 12:33:42;;;;;;;;;;;;;;;;;;5117024;27;1936;-42
2022/09/30 12:36:20;;;;;;;;;;;;;;;;;;5126231;27;1613;-41
2022/09/30 12:38:53;;;;;;;;;;;;;;;;;;5114324;28;2012;-41
2022/09/30 12:41:30;;;;;;;;;;;;;;;;;;5118827;27;1753;-41
2022/09/30 12:44:22;;;;;;;;;;;;;;;;;;5134774;27;2040;-41
2022/09/30 12:46:58;;;;;;;;;;;;;;;;;;5114603;27;1910;-41
2022/09/30 12:49:26;;;;;;;;;;;;;;;;;;5114026;28;1635;-42
2022/09/30 12:51:55;;;;;;;;;;;;;;;;;;5113778;28;1968;-43
2022/09/30 12:54:27;;;;;;;;;;;;;;;;;;5113912;28;1619;-42
2022/09/30 12:56:59;;;;;;;;;;;;;;;;;;5112696;28;2065;-41
2022/09/30 12:59:28;;;;;;;;;;;;;;;;;;5113787;28;2083;-41
2022/09/30 13:01:56;;;;;;;;;;;;;;;;;;5113452;28;2002;-41
2022/09/30 13:04:33;;;;;;;;;;;;;;;;;;5114016;28;1991;-42
2022/09/30 13:07:01;;;;;;;;;;;;;;;;;;5113406;28;1965;-44
2022/09/30 13:09:35;;;;;;;;;;;;;;;;;;5113599;28;2090;-42
2022/09/30 13:12:02;;;;;;;;;;;;;;;;;;5113287;28;1707;-41
2022/09/30 13:14:31;;;;;;;;;;;;;;;;;;5112735;28;1975;-42
2022/09/30 13:17:00;;;;;;;;;;;;;;;;;;5113195;28;1757;-41
2022/09/30 13:19:39;;;;;;;;;;;;;;;;;;5113134;28;2107;-41
2022/09/30 13:22:37;;;;;;;;;;;;;;;;;;5113408;28;1787;-42
2022/09/30 13:25:12;;;;;;;;;;;;;;;;;;5113614;28;2076;-41
2022/09/30 13:27:54;;;;;;;;;;;;;;;;;;5113253;28;2117;-41
2022/09/30 13:30:23;;;;;;;;;;;;;;;;;;5115309;27;2223;-42
2022/09/30 13:32:58;;;;;;;;;;;;;;;;;;5133767;27;1962;-43
2022/09/30 13:35:32;;;;;;;;;;;;;;;;;;5133295;27;1702;-43
2022/09/30 13:38:12;;;;;;;;;;;;;;;;;;5132287;27;2019;-45
2022/09/30 13:40:43;;;;;;;;;;;;;;;;;;5133463;27;2035;-41
2022/09/30 13:43:39;;;;;;;;;;;;;;;;;;5133453;27;1860;-41
2022/09/30 13:46:15;;;;;;;;;;;;;;;;;;5133486;27;1974;-41
2022/09/30 13:49:12;;;;;;;;;;;;;;;;;;5133311;27;1912;-41
2022/09/30 13:51:40;;;;;;;;;;;;;;;;;;5124375;27;1812;-41
2022/09/30 13:54:19;;;;;;;;;;;;;;;;;;5112345;28;2090;-42
2022/09/30 13:56:46;;;;;;;;;;;;;;;;;;5111628;28;1853;-41
2022/09/30 13:59:17;;;;;;;;;;;;;;;;;;5112506;28;2353;-42
2022/09/30 14:01:44;;;;;;;;;;;;;;;;;;5112438;28;1933;-40
2022/09/30 14:04:22;;;;;;;;;;;;;;;;;;5112942;28;1376;-41
2022/09/30 14:07:04;;;;;;;;;;;;;;;;;;5112606;28;1978;-41
2022/09/30 14:09:50;;;;;;;;;;;;;;;;;;5112560;28;1576;-41
2022/09/30 14:12:22;;;;;;;;;;;;;;;;;;5111900;28;1668;-41
2022/09/30 14:15:05;;;;;;;;;;;;;;;;;;5112606;28;1935;-42
2022/09/30 14:17:51;;;;;;;;;;;;;;;;;;5112460;28;1930;-41
2022/09/30 14:20:24;;;;;;;;;;;;;;;;;;5111668;28;1703;-40
2022/09/30 14:22:52;;;;;;;;;;;;;;;;;;5112876;28;1430;-41
2022/09/30 14:25:22;;;;;;;;;;;;;;;;;;5112777;28;2060;-41
2022/09/30 14:28:02;;;;;;;;;;;;;;;;;;5116713;28;1904;-40
2022/09/30 14:30:33;;;;;;;;;;;;;;;;;;5116644;28;2098;-40
2022/09/30 14:33:02;;;;;;;;;;;;;;;;;;5116107;28;1518;-40
2022/09/30 14:35:31;;;;;;;;;;;;;;;;;;5116291;28;1813;-40
2022/09/30 14:38:00;;;;;;;;;;;;;;;;;;5114789;28;1889;-41
2022/09/30 14:40:35;;;;;;;;;;;;;;;;;;5116506;28;1525;-40
2022/09/30 14:43:04;;;;;;;;;;;;;;;;;;5116367;28;2101;-43
2022/09/30 14:45:33;;;;;;;;;;;;;;;;;;5116380;28;1909;-43
2022/09/30 14:48:03;;;;;;;;;;;;;;;;;;5118522;27;2022;-40
2022/09/30 14:50:35;;;;;;;;;;;;;;;;;;5121752;27;1888;-45
2022/09/30 14:53:03;;;;;;;;;;;;;;;;;;5116502;27;1374;-43
2022/09/30 14:55:33;;;;;;;;;;;;;;;;;;5135560;27;1882;-44
2022/09/30 14:58:17;;;;;;;;;;;;;;;;;;5135524;27;1547;-42
2022/09/30 15:00:47;;;;;;;;;;;;;;;;;;5135970;27;1625;-41
2022/09/30 15:03:14;;;;;;;;;;;;;;;;;;5136460;27;1662;-42
2022/09/30 15:05:41;;;;;;;;;;;;;;;;;;5136132;27;2115;-41
2022/09/30 15:08:10;;;;;;;;;;;;;;;;;;5136193;27;1553;-41
2022/09/30 15:10:37;;;;;;;;;;;;;;;;;;5135918;27;1854;-41
2022/09/30 15:13:06;;;;;;;;;;;;;;;;;;5136420;27;2137;-41
2022/09/30 15:15:35;;;;;;;;;;;;;;;;;;5135890;27;1892;-43
2022/09/30 15:18:21;;;;;;;;;;;;;;;;;;5136218;27;1866;-42
2022/09/30 15:20:48;;;;;;;;;;;;;;;;;;5136284;27;1535;-40
2022/09/30 15:23:18;;;;;;;;;;;;;;;;;;5135929;27;1896;-41
2022/09/30 15:25:46;;;;;;;;;;;;;;;;;;5136016;27;2222;-42
2022/09/30 15:28:13;;;;;;;;;;;;;;;;;;5136102;27;1662;-41
2022/09/30 15:30:42;;;;;;;;;;;;;;;;;;5130866;27;2140;-41
2022/09/30 15:33:19;;;;;;;;;;;;;;;;;;5115447;28;1919;-42
2022/09/30 15:35:46;;;;;;;;;;;;;;;;;;5115155;28;1998;-43
2022/09/30 15:38:13;;;;;;;;;;;;;;;;;;5113535;28;1221;-43
2022/09/30 15:40:51;;;;;;;;;;;;;;;;;;5115132;28;1798;-42
2022/09/30 15:43:32;;;;;;;;;;;;;;;;;;5119692;27;1992;-44
2022/09/30 15:46:25;;;;;;;;;;;;;;;;;;5115099;28;1902;-41
2022/09/30 15:49:21;;;;;;;;;;;;;;;;;;5122095;27;2293;-41
2022/09/30 15:51:49;;;;;;;;;;;;;;;;;;5122945;27;1742;-42
2022/09/30 15:54:48;;;;;;;;;;;;;;;;;;5120800;27;1788;-41
2022/09/30 15:57:51;;;;;;;;;;;;;;;;;;5091824;28;1828;-41
2022/09/30 16:00:34;;;;;;;;;;;;;;;;;;5112383;28;1903;-41
2022/09/30 16:03:24;;;;;;;;;;;;;;;;;;5114755;28;2178;-42
2022/09/30 16:05:52;;;;;;;;;;;;;;;;;;5114963;28;1978;-41
2022/09/30 16:08:24;;;;;;;;;;;;;;;;;;5114611;28;1699;-42
2022/09/30 16:10:55;;;;;;;;;;;;;;;;;;5115018;28;1898;-41
2022/09/30 16:13:24;;;;;;;;;;;;;;;;;;5114847;28;1665;-41
2022/09/30 16:15:53;;;;;;;;;;;;;;;;;;5114982;28;2232;-41
2022/09/30 16:18:25;;;;;;;;;;;;;;;;;;5114852;28;1561;-42
2022/09/30 16:21:00;;;;;;;;;;;;;;;;;;5114519;28;1785;-43
2022/09/30 16:23:28;;;;;;;;;;;;;;;;;;5114351;28;1668;-45
2022/09/30 16:26:31;;;;;;;;;;;;;;;;;;5114368;28;1962;-45
2022/09/30 16:29:02;;;;;;;;;;;;;;;;;;5111970;28;1744;-45
2022/09/30 16:31:34;;;;;;;;;;;;;;;;;;5125658;27;1900;-45
2022/09/30 16:34:01;;;;;;;;;;;;;;;;;;5135025;27;2246;-45
2022/09/30 16:36:31;;;;;;;;;;;;;;;;;;5134756;27;1823;-44
2022/09/30 16:38:58;;;;;;;;;;;;;;;;;;5134836;27;1804;-43
2022/09/30 16:41:25;;;;;;;;;;;;;;;;;;5133061;27;2550;-42
2022/09/30 16:44:12;;;;;;;;;;;;;;;;;;5134649;27;1680;-45
2022/09/30 16:46:39;;;;;;;;;;;;;;;;;;5134528;27;1972;-41
2022/09/30 16:49:19;;;;;;;;;;;;;;;;;;5133169;27;2306;-45
2022/09/30 16:51:46;;;;;;;;;;;;;;;;;;5134404;27;1670;-44
2022/09/30 16:54:13;;;;;;;;;;;;;;;;;;5134355;27;1693;-43
2022/09/30 16:56:40;;;;;;;;;;;;;;;;;;5134309;27;1880;-43
2022/09/30 16:59:14;;;;;;;;;;;;;;;;;;5134317;27;1723;-44
2022/09/30 17:01:41;;;;;;;;;;;;;;;;;;5134311;27;2249;-43
2022/09/30 17:04:09;;;;;;;;;;;;;;;;;;5134230;27;1909;-44
2022/09/30 17:06:39;;;;;;;;;;;;;;;;;;5134269;27;1905;-46
2022/09/30 17:09:06;;;;;;;;;;;;;;;;;;5124581;27;2040;-45
2022/09/30 17:11:34;;;;;;;;;;;;;;;;;;5113721;28;1782;-43
2022/09/30 17:14:02;;;;;;;;;;;;;;;;;;5113525;28;2104;-44
2022/09/30 17:16:32;;;;;;;;;;;;;;;;;;5113616;28;1779;-43
2022/09/30 17:19:01;;;;;;;;;;;;;;;;;;5113316;28;1655;-45
2022/09/30 17:21:28;;;;;;;;;;;;;;;;;;5113092;27;2287;-44
2022/09/30 17:23:56;;;;;;;;;;;;;;;;;;5113574;28;2237;-43
2022/09/30 17:26:23;;;;;;;;;;;;;;;;;;5113449;28;1910;-45
2022/09/30 17:28:50;;;;;;;;;;;;;;;;;;5113663;28;2233;-44
2022/09/30 17:31:21;;;;;;;;;;;;;;;;;;5113294;28;2288;-44
2022/09/30 17:33:49;;;;;;;;;;;;;;;;;;5112907;28;2059;-43
2022/09/30 17:36:17;;;;;;;;;;;;;;;;;;5113350;28;1274;-44
2022/09/30 17:38:45;;;;;;;;;;;;;;;;;;5113025;28;1946;-44
2022/09/30 17:44:00;;;;;;;;;;;;;;;;;;5113146;28;1661;-44